Motte Rimrock Reserve, California Weather observations

Data are for 10 minute period ending at time listed.
 Day   Time   Solar   Ave.   Ave.  Ave.  Vector  Max.   Baro.   Total    
  of    of     Rad.   Air    Rel.  Wind   Wind   Wind  Press.  Precip.   
Year   Day            Temp.  Hum.  Speed  Dir.   Gust                    
2019   (PST)  Kw/m2    F      %     mph   deg.    mph    mb.     in.     
-------------------------------------------------------------------------
 287   15:10   0.39   74.1    28    6.3   303    12.3   946.2    0.00 
 287   15:20   0.36   74.2    27    8.4   308    12.6   946.2    0.00 
 287   15:30   0.33   73.7    28    9.7   304    16.3   946.3    0.00 
 287   15:40   0.29   73.6    30    9.2   314    13.7   946.3    0.00 
 287   15:50   0.26   73.5    30    9.4   308    14.3   946.3    0.00 
 287   16:00   0.22   72.7    31   10.1   314    13.6   946.3    0.00 
 287   16:10   0.19   72.4    32   11.1   308    16.4   946.3    0.00 
 287   16:20   0.16   71.7    33   10.0   320    14.0   946.3    0.00 
 287   16:30   0.12   71.2    35   10.4   315    13.4   946.3    0.00 
 287   16:40   0.10   70.5    36   10.6   312    13.5   946.3    0.00 
 287   16:50   0.06   69.9    37    9.3   322    13.0   946.4    0.00 
 287   17:00   0.04   68.7    41   10.8   314    14.3   946.6    0.00 
 287   17:10   0.02   67.8    44   11.4   311    15.2   946.5    0.00 
 287   17:20   0.01   66.7    49   12.4   300    15.9   946.5    0.00 
 287   17:30   0.00   65.9    52   11.1   312    14.5   946.6    0.00 
 287   17:40   0.00   65.3    54   12.0   306    15.2   946.7    0.00 
 287   17:50   0.00   64.7    56   12.4   307    15.7   946.8    0.00 
 287   18:00   0.00   64.1    57   12.5   307    15.6   946.9    0.00 
 287   18:10   0.00   63.8    59   11.7   310    15.3   947.0    0.00 
 287   18:20   0.00   63.2    60   12.0   309    14.5   947.1    0.00 
 287   18:30   0.00   62.9    61   12.4   308    15.5   947.2    0.00 
 287   18:40   0.00   62.7    62   13.0   307    15.4   947.3    0.00 
 287   18:50   0.00   62.4    64   13.1   307    16.0   947.3    0.00 
 287   19:00   0.00   62.1    65   12.8   307    15.9   947.4    0.00 
 287   19:10   0.00   61.9    66   12.5   305    15.6   947.5    0.00 
 287   19:20   0.00   61.6    67   11.8   303    14.9   947.6    0.00 
 287   19:30   0.00   61.4    68   11.4   303    14.9   947.7    0.00 
 287   19:40   0.00   61.1    68   10.2   299    15.1   947.8    0.00 
 287   19:50   0.00   60.7    69    9.1   302    12.3   947.9    0.00 
 287   20:00   0.00   60.4    70    7.5   302    10.4   948.0    0.00 
 287   20:10   0.00   59.7    72    6.9   294     9.4   948.1    0.00 
 287   20:20   0.00   59.0    74    7.1   299     9.3   948.2    0.00 
 287   20:30   0.00   59.0    74    7.2   304     9.2   948.4    0.00 
 287   20:40   0.00   58.7    75    7.5   300     9.4   948.5    0.00 
 287   20:50   0.00   58.1    76    7.1   299     9.5   948.5    0.00 
 287   21:00   0.00   58.2    77    8.3   309     9.6   948.6    0.00 
 287   21:10   0.00   57.5    78    7.7   312     9.6   948.6    0.00 
 287   21:20   0.00   57.4    79    5.9   303     7.9   948.7    0.00 
 287   21:30   0.00   56.9    79    5.2   294     6.4   948.7    0.00 
 287   21:40   0.00   56.6    81    6.1   300     7.6   948.8    0.00 
 287   21:50   0.00   57.1    80    6.5   309     8.1   948.9    0.00 
 287   22:00   0.00   57.0    80    5.9   314     7.2   948.9    0.00 
 287   22:10   0.00   56.9    80    5.7   312     6.9   949.0    0.00 
 287   22:20   0.00   57.0    80    6.6   318     7.6   949.0    0.00 
 287   22:30   0.00   57.0    80    7.0   326     7.7   949.0    0.00 
 287   22:40   0.00   57.2    80    6.6   330     7.3   948.9    0.00 
 287   22:50   0.00   56.7    81    6.7   327     7.6   948.8    0.00 
 287   23:00   0.00   56.4    82    6.7   325     7.5   948.8    0.00 
 287   23:10   0.00   56.3    82    6.8   321     7.6   948.9    0.00 
 287   23:20   0.00   56.5    82    6.7   325     7.4   948.9    0.00 
 287   23:30   0.00   56.4    82    6.7   316     7.5   948.9    0.00 
 287   23:40   0.00   56.2    82    5.7   318     6.8   948.9    0.00 
 287   23:50   0.00   56.2    82    6.1   319     7.2   948.8    0.00 
 288    0:00   0.00   56.2    83    6.3   324     6.7   948.7    0.00 
 288    0:10   0.00   57.0    83    4.6   340     5.8   948.8    0.00 
 288    0:20   0.00   57.7    82    3.8     8     5.2   948.8    0.00 
 288    0:30   0.00   57.5    82    3.3     3     4.4   948.8    0.00 
 288    0:40   0.00   57.3    82    3.6    28     4.2   948.8    0.00 
 288    0:50   0.00   57.3    82    4.1    36     4.6   948.9    0.00 
 288    1:00   0.00   57.7    82    4.1    44     4.7   949.0    0.00 
 288    1:10   0.00   57.3    82    3.9    45     4.9   949.0    0.00 
 288    1:20   0.00   55.0    84    1.0   148     3.2   948.9    0.00 
 288    1:30   0.00   55.2    86    0.0   160     0.4   948.9    0.00 
 288    1:40   0.00   55.1    87    0.0     0     0.0   948.8    0.00 
 288    1:50   0.00   55.5    87    0.0     0     0.0   948.7    0.00 
 288    2:00   0.00   56.6    85    1.0   105     2.0   948.7    0.00 
 288    2:10   0.00   57.7    81    2.3    69     3.1   948.6    0.00 
 288    2:20   0.00   57.6    80    2.9    72     3.4   948.5    0.00 
 288    2:30   0.00   57.3    82    1.9   108     2.6   948.5    0.00 
 288    2:40   0.00   57.2    82    1.4   110     1.9   948.6    0.00 
 288    2:50   0.00   56.8    84    1.9    85     3.1   948.6    0.00 
 288    3:00   0.00   56.4    84    2.1    58     2.6   948.6    0.00 
 288    3:10   0.00   56.2    85    0.1    58     1.2   948.5    0.00 
 288    3:20   0.00   56.1    85    0.9    99     2.6   948.5    0.00 
 288    3:30   0.00   55.8    86    1.1   201     2.3   948.6    0.00 
 288    3:40   0.00   55.6    87    1.8   209     2.3   948.6    0.00 
 288    3:50   0.00   55.5    87    1.8   192     2.3   948.7    0.00 
 288    4:00   0.00   55.6    87    0.3   194     1.3   948.7    0.00 
 288    4:10   0.00   55.7    87    0.9   204     2.1   948.8    0.00 
 288    4:20   0.00   55.7    86    2.1   226     4.0   948.9    0.00 
 288    4:30   0.00   54.5    87    1.8   219     3.4   948.9    0.00 
 288    4:40   0.00   54.9    88    1.4   238     3.1   948.9    0.00 
 288    4:50   0.00   55.8    86    0.3   233     1.7   949.0    0.00 
 288    5:00   0.00   56.4    85    0.2   233     1.3   949.0    0.00 
 288    5:10   0.00   57.2    82    0.0   234     1.0   949.1    0.00 
 288    5:20   0.00   57.9    80    0.2   233     0.9   949.2    0.00 
 288    5:30   0.00   58.4    76    0.8   359     2.0   949.3    0.00 
 288    5:40   0.00   57.8    78    0.2   128     0.9   949.4    0.00 
 288    5:50   0.00   57.1    80    1.8    65     3.7   949.5    0.00 
 288    6:00   0.01   55.4    84    1.4    62     3.5   949.6    0.00 
 288    6:10   0.02   57.5    80    1.6    14     3.5   949.7    0.00 
 288    6:20   0.04   58.3    78    0.5   184     1.9   949.7    0.00 
 288    6:30   0.07   56.8    79    0.0   294     0.4   949.7    0.00 
 288    6:40   0.10   57.2    80    0.0   323     0.1   949.8    0.00 
 288    6:50   0.13   59.8    78    0.1   348     1.0   950.0    0.00 
 288    7:00   0.16   61.8    74    0.1    28     1.0   950.2    0.00 
 288    7:10   0.19   62.5    72    0.5   304     1.5   950.3    0.00 
 288    7:20   0.23   62.3    73    0.6   200     1.8   950.5    0.00 
 288    7:30   0.26   61.8    74    2.1   178     3.3   950.6    0.00 
 288    7:40   0.29   61.3    74    2.6   164     4.4   950.8    0.00 
 288    7:50   0.32   63.4    68    1.4   123     4.3   950.8    0.00 
 288    8:00   0.35   62.7    64    3.1   110     6.3   951.0    0.00 
 288    8:10   0.39   62.3    64    2.7   130     5.6   951.1    0.00 
 288    8:20   0.42   64.7    57    1.9   174     4.4   951.2    0.00 
 288    8:30   0.45   66.9    47    2.4   215     3.8   951.2    0.00 
 288    8:40   0.48   69.3    36    2.4   240     5.8   951.2    0.00 
 288    8:50   0.51   72.1    29    2.0   275     5.3   951.2    0.00 
 288    9:00   0.53   74.9    27    2.5    47     6.5   951.2    0.00 
 288    9:10   0.56   74.6    30    1.9    72     4.7   951.2    0.00 
 288    9:20   0.58   75.7    29    3.0    63     6.9   951.2    0.00 
 288    9:30   0.60   75.9    28    3.1    59     6.6   951.2    0.00 
 288    9:40   0.63   77.5    23    2.8    23     7.2   951.1    0.00 
 288    9:50   0.65   79.3    19    2.0    42     6.4   951.0    0.00 
 288   10:00   0.67   80.2    15    2.1   262     3.7   951.0    0.00 
 288   10:10   0.68   81.1    15    2.2    28     7.2   950.9    0.00 
 288   10:20   0.69   81.2    16    3.1     7     6.8   950.8    0.00 
 288   10:30   0.71   82.9    13    2.2    44     6.8   950.7    0.00 
 288   10:40   0.72   83.2    13    3.2    58     7.7   950.6    0.00 
 288   10:50   0.73   82.1    13    3.0    14     6.4   950.5    0.00 
 288   11:00   0.74   83.2    13    3.3    64     7.5   950.4    0.00 
 288   11:10   0.75   84.5    12    5.2    74     8.3   950.2    0.00 
 288   11:20   0.75   84.3    12    4.7    64     8.7   950.2    0.00 
 288   11:30   0.75   84.5    12    3.6    30     7.4   950.1    0.00 
 288   11:40   0.76   85.1    12    5.1     9     9.6   950.0    0.00 
 288   11:50   0.75   85.1    12    4.8    13    10.6   950.0    0.00 
 288   12:00   0.75   85.4    12    4.5    22     9.4   949.9    0.00 
 288   12:10   0.74   85.3    12    4.2    33     8.6   949.7    0.00 
 288   12:20   0.74   87.1    12    2.3    92     9.7   949.5    0.00 
 288   12:30   0.73   86.5    12    5.3   156     9.2   949.4    0.00 
 288   12:40   0.72   86.0    12    4.9   172    13.8   949.3    0.00 
 288   12:50   0.71   85.6    12    4.6   219     8.9   949.0    0.00 
 288   13:00   0.70   86.5    13    7.8   119    12.8   948.9    0.00 
 288   13:10   0.68   85.9    13    4.6   115     9.5   948.8    0.00 
 288   13:20   0.66   87.6    12    1.9   258     8.9   948.5    0.00 
 288   13:30   0.64   87.3    12    6.0   289    13.2   948.4    0.00 
 288   13:40   0.60   87.5    12    3.6   312     7.4   948.3    0.00 
 288   13:50   0.60   87.7    13    4.1    11     8.6   948.2    0.00 
 288   14:00   0.58   87.9    12    7.1   344    11.4   948.2    0.00 
 288   14:10   0.56   86.9    13    4.9    18     8.7   948.1    0.00 
 288   14:20   0.53   87.3    13    2.7    14     7.7   948.0    0.00 
 288   14:30   0.51   87.0    13    5.7    14    11.8   947.9    0.00 
 288   14:40   0.48   86.4    13    5.9   332    10.1   947.8    0.00 
 288   14:50   0.45   87.4    13    3.1    14     8.8   947.8    0.00 
 288   15:00   0.42   86.8    13    8.2   346    12.7   947.7    0.00 

Return to Motte Rimrock Reserve graphs page.


Western Regional Climate Center,wrcc@dri.edu